Time;durP1;ratioP1;P1;durP2;ratioP2;P2;SDS_P1;SDS_P2;PMS_P1;PMS_P2;Temp;Humidity;BMP_temperature;BMP_pressure;BME280_temperature;BME280_humidity;BME280_pressure;Samples;Min_cycle;Max_cycle;Signal;HPM_P1;HPM_P2
2023/12/06 00:00:14;;;;;;;12.03;7.27;;;2.30;97.60;;;1.44;100.00;97240.03;5067695;28;20554;-74
2023/12/06 00:02:41;;;;;;;9.60;6.83;;;2.30;97.60;;;1.31;100.00;97240.63;5061553;28;21007;-76
2023/12/06 00:05:10;;;;;;;9.97;6.97;;;2.20;97.40;;;1.40;100.00;97244.06;5065545;28;20462;-73
2023/12/06 00:07:39;;;;;;;8.83;7.37;;;2.30;97.70;;;1.33;100.00;97243.94;5080686;28;20531;-71
2023/12/06 00:10:08;;;;;;;9.27;6.83;;;2.20;97.60;;;1.34;100.00;97242.09;5081573;28;20447;-72
2023/12/06 00:12:35;;;;;;;9.73;7.20;;;2.20;98.10;;;1.27;100.00;97236.63;5086390;28;20530;-74
2023/12/06 00:15:04;;;;;;;11.13;7.80;;;2.20;97.80;;;1.26;100.00;97237.66;5089985;28;20950;-72
2023/12/06 00:17:31;;;;;;;10.73;7.30;;;2.20;98.00;;;1.27;100.00;97237.47;5088791;28;20448;-72
2023/12/06 00:19:58;;;;;;;9.73;6.60;;;2.20;98.20;;;1.21;100.00;97240.00;5091430;28;20912;-72
2023/12/06 00:22:26;;;;;;;10.77;6.93;;;2.20;98.20;;;1.13;100.00;97239.03;5090364;28;20527;-72
2023/12/06 00:24:54;;;;;;;11.37;8.10;;;2.10;98.20;;;1.06;100.00;97224.78;5080768;28;20436;-72
2023/12/06 00:27:22;;;;;;;9.63;8.33;;;2.10;98.80;;;1.11;100.00;97240.25;5088150;28;20794;-74
2023/12/06 00:29:50;;;;;;;11.53;8.00;;;2.00;98.90;;;1.08;100.00;97246.72;5085106;28;20450;-73
2023/12/06 00:32:17;;;;;;;10.67;8.10;;;2.00;99.60;;;1.08;100.00;97240.59;5069657;28;21729;-72
2023/12/06 00:34:44;;;;;;;10.00;8.07;;;2.00;99.90;;;1.13;100.00;97243.56;5069834;28;20445;-71
2023/12/06 00:37:11;;;;;;;10.77;8.80;;;2.10;99.90;;;1.12;100.00;97253.34;5066202;28;20446;-72
2023/12/06 00:39:39;;;;;;;12.07;8.77;;;2.00;99.90;;;1.00;100.00;97249.44;5072480;28;20964;-73
2023/12/06 00:42:07;;;;;;;11.60;8.67;;;2.00;99.90;;;0.97;100.00;97239.13;5066699;28;21425;-72
2023/12/06 00:44:35;;;;;;;11.73;8.27;;;2.00;99.90;;;0.92;100.00;97244.16;5075981;28;20460;-73
2023/12/06 00:47:04;;;;;;;12.03;9.00;;;1.90;99.90;;;1.06;100.00;97259.38;5064862;28;20486;-72
2023/12/06 00:49:32;;;;;;;11.10;9.27;;;1.90;99.90;;;1.04;100.00;97248.09;5066418;28;20462;-72
2023/12/06 00:51:59;;;;;;;10.20;8.33;;;2.00;99.90;;;1.05;100.00;97249.75;5068753;28;20495;-70
2023/12/06 00:54:27;;;;;;;10.20;9.10;;;2.00;99.90;;;0.93;100.00;97251.13;5090582;28;20953;-72
2023/12/06 00:56:54;;;;;;;10.70;7.80;;;1.90;99.90;;;0.90;100.00;97238.97;5069591;28;20463;-73
2023/12/06 00:59:22;;;;;;;13.30;8.53;;;1.90;99.90;;;0.91;100.00;97256.63;5072049;28;20476;-73
2023/12/06 01:01:50;;;;;;;10.73;8.63;;;1.90;99.90;;;0.79;100.00;97252.69;5076661;28;20950;-74
2023/12/06 01:04:17;;;;;;;12.27;8.77;;;1.80;99.90;;;0.83;100.00;97260.16;5085168;28;20465;-73
2023/12/06 01:06:45;;;;;;;12.83;9.10;;;1.80;99.90;;;0.83;100.00;97260.16;5064850;28;20453;-73
2023/12/06 01:09:12;;;;;;;12.23;9.57;;;1.80;99.90;;;0.90;100.00;97272.75;5077841;28;20862;-73
2023/12/06 01:11:39;;;;;;;10.27;8.53;;;1.90;99.90;;;0.95;100.00;97263.25;5071194;28;20805;-72
2023/12/06 01:14:08;;;;;;;12.27;9.43;;;1.90;99.90;;;0.68;100.00;97264.50;5073259;28;20549;-72
2023/12/06 01:16:36;;;;;;;12.40;8.30;;;1.80;99.90;;;0.76;100.00;97264.47;5064081;28;20472;-73
2023/12/06 01:19:03;;;;;;;10.60;8.87;;;1.80;99.90;;;0.97;100.00;97273.72;5065071;28;20562;-72
2023/12/06 01:21:32;;;;;;;11.53;8.30;;;1.80;99.90;;;0.89;100.00;97279.06;5064692;28;20451;-72
2023/12/06 01:23:59;;;;;;;14.03;9.80;;;1.80;99.90;;;0.82;100.00;97269.09;5068017;28;20449;-70
2023/12/06 01:26:27;;;;;;;11.10;8.83;;;1.80;99.90;;;0.89;100.00;97279.06;5076503;28;20576;-74
2023/12/06 01:28:54;;;;;;;11.43;8.67;;;1.80;99.90;;;0.82;100.00;97274.41;5076284;28;20545;-72
2023/12/06 01:31:22;;;;;;;13.00;9.40;;;1.80;99.90;;;0.69;100.00;97269.66;5066852;28;20994;-73
2023/12/06 01:33:50;;;;;;;9.70;8.70;;;1.70;99.90;;;0.74;100.00;97279.78;5070637;28;20459;-73
2023/12/06 01:36:17;;;;;;;10.07;8.93;;;1.70;99.90;;;0.67;100.00;97274.31;5093269;28;20729;-72
2023/12/06 01:38:45;;;;;;;10.40;8.37;;;1.70;99.90;;;0.67;100.00;97273.47;5085334;28;20951;-73
2023/12/06 01:41:13;;;;;;;10.70;8.60;;;1.60;99.90;;;0.49;100.00;97269.19;5084711;28;20443;-74
2023/12/06 01:43:43;;;;;;;12.17;9.20;;;1.50;99.90;;;0.58;100.00;97274.50;5080458;28;20988;-73
2023/12/06 01:46:11;;;;;;;12.47;8.70;;;1.50;99.90;;;0.66;100.00;97285.13;5084954;28;20448;-76
2023/12/06 01:48:39;;;;;;;11.23;8.97;;;1.60;99.90;;;0.59;100.00;97270.84;5087474;28;20442;-73
2023/12/06 01:51:09;;;;;;;11.30;8.43;;;1.60;99.90;;;0.64;100.00;97273.81;5087169;28;20492;-72
2023/12/06 01:53:37;;;;;;;9.13;8.00;;;1.60;99.90;;;0.49;100.00;97279.84;5083781;28;20472;-73
2023/12/06 01:56:08;;;;;;;9.60;7.73;;;1.50;99.90;;;0.53;100.00;97278.53;5072495;28;20936;-71
2023/12/06 01:58:38;;;;;;;10.73;7.43;;;1.50;99.90;;;0.50;100.00;97275.38;5066305;28;20466;-70
2023/12/06 02:01:06;;;;;;;12.40;8.53;;;1.50;99.90;;;0.45;100.00;97275.88;5071016;28;20464;-72
2023/12/06 02:03:34;;;;;;;11.90;9.57;;;1.40;99.90;;;0.60;100.00;97288.47;5086046;28;20448;-73
2023/12/06 02:06:03;;;;;;;9.80;8.77;;;1.50;99.90;;;0.47;100.00;97281.84;5065120;28;20449;-73
2023/12/06 02:08:35;;;;;;;10.63;8.17;;;1.50;99.90;;;0.69;100.00;97271.50;5081869;28;20457;-73
2023/12/06 02:11:03;;;;;;;11.23;9.40;;;1.60;99.90;;;0.60;100.00;97277.81;5083247;28;20452;-73
2023/12/06 02:13:32;;;;;;;11.20;8.60;;;1.50;99.90;;;0.63;100.00;97280.13;5099969;28;20449;-71
2023/12/06 02:15:59;;;;;;;10.17;8.27;;;1.60;99.90;;;0.56;100.00;97275.50;5071655;28;20461;-71
2023/12/06 02:18:28;;;;;;;11.10;8.43;;;1.60;99.90;;;0.53;100.00;97275.88;5074989;28;20779;-72
2023/12/06 02:20:57;;;;;;;12.23;8.90;;;1.60;99.90;;;0.66;100.00;97277.97;5079824;28;20481;-73
2023/12/06 02:23:30;;;;;;;12.57;9.07;;;1.60;99.90;;;0.65;100.00;97272.81;5072052;28;20471;-72
2023/12/06 02:25:59;;;;;;;12.30;8.70;;;1.60;99.90;;;0.74;100.00;97276.28;5079308;28;20472;-70
2023/12/06 02:28:27;;;;;;;12.13;9.40;;;1.70;99.90;;;0.65;100.00;97272.81;5078962;28;20946;-72
2023/12/06 02:30:54;;;;;;;10.60;8.00;;;1.70;99.90;;;0.65;100.00;97283.44;5083467;28;20470;-73
2023/12/06 02:33:24;;;;;;;12.20;8.47;;;1.60;99.90;;;0.75;100.00;97275.28;5078088;28;20558;-72
2023/12/06 02:35:59;;;;;;;10.23;8.33;;;1.60;99.90;;;0.61;100.00;97276.81;5085433;28;20545;-74
2023/12/06 02:38:28;;;;;;;12.37;8.70;;;1.60;99.90;;;0.78;100.00;97274.97;5089638;28;20964;-74
2023/12/06 02:40:59;;;;;;;12.10;7.80;;;1.60;99.90;;;0.46;100.00;97235.00;5085254;28;20832;-74
2023/12/06 02:43:26;;;;;;;10.80;8.23;;;1.70;99.90;;;0.79;100.00;97274.78;5084931;28;20756;-79
2023/12/06 02:45:55;;;;;;;9.90;8.90;;;1.70;99.90;;;0.74;100.00;97274.47;5078571;28;20456;-73
2023/12/06 02:48:22;;;;;;;9.97;8.30;;;1.70;99.90;;;0.76;100.00;97277.78;5078561;28;20968;-76
2023/12/06 02:50:49;;;;;;;11.77;9.00;;;1.70;99.90;;;0.79;100.00;97277.44;5082208;28;20461;-72
2023/12/06 02:53:17;;;;;;;11.73;8.83;;;1.70;99.90;;;0.81;100.00;97283.41;5086041;28;20566;-73
2023/12/06 02:55:44;;;;;;;10.80;7.77;;;1.80;99.90;;;0.75;100.00;97281.44;5085426;28;20445;-78
2023/12/06 02:58:13;;;;;;;12.13;9.30;;;1.80;99.90;;;0.82;100.00;97287.72;5084854;28;20457;-76
2023/12/06 03:00:41;;;;;;;13.10;10.47;;;1.70;99.90;;;0.91;100.00;97279.72;5099990;28;20998;-78
2023/12/06 03:03:08;;;;;;;12.13;10.13;;;1.80;99.90;;;0.94;100.00;97272.25;5078288;28;20458;-73
2023/12/06 03:05:35;;;;;;;10.47;8.90;;;1.80;99.90;;;0.89;100.00;97279.06;5077785;28;20480;-75
2023/12/06 03:08:04;;;;;;;13.70;8.43;;;1.80;99.90;;;0.78;100.00;97270.47;5082614;28;20520;-74
2023/12/06 03:10:31;;;;;;;13.27;9.00;;;1.80;99.90;;;0.95;100.00;97273.06;5099186;28;20459;-80
2023/12/06 03:12:58;;;;;;;10.70;9.17;;;1.80;99.90;;;0.92;100.00;97278.72;5084834;28;20478;-77
2023/12/06 03:15:27;;;;;;;11.80;9.23;;;1.80;99.90;;;0.96;100.00;97282.69;5078032;28;22213;-79
2023/12/06 03:17:54;;;;;;;10.50;7.70;;;1.90;99.90;;;0.91;100.00;97280.56;5082570;28;20460;-77
2023/12/06 03:20:22;;;;;;;10.97;9.20;;;1.90;99.90;;;0.84;100.00;97255.66;5083415;28;20456;-77
2023/12/06 03:22:49;;;;;;;10.87;8.00;;;1.90;99.90;;;0.95;100.00;97281.03;5084898;28;20526;-79
2023/12/06 03:25:16;;;;;;;11.67;8.97;;;1.90;99.90;;;0.97;100.00;97276.38;5071746;28;20530;-78
2023/12/06 03:27:45;;;;;;;12.20;8.60;;;1.90;99.90;;;1.09;100.00;97275.00;5074571;28;20473;-76
2023/12/06 03:30:13;;;;;;;12.73;9.33;;;2.00;99.90;;;1.16;100.00;97279.63;5079190;28;20481;-75
2023/12/06 03:32:42;;;;;;;13.40;8.87;;;2.00;99.90;;;1.11;100.00;97282.81;5087553;28;20481;-78
2023/12/06 03:35:10;;;;;;;11.57;8.70;;;2.10;99.90;;;1.09;100.00;97290.13;5080306;28;20502;-76
2023/12/06 03:37:37;;;;;;;11.53;8.40;;;2.00;99.90;;;1.14;100.00;97293.09;5101493;27;20502;-79
2023/12/06 03:40:07;;;;;;;10.90;9.00;;;2.10;99.90;;;1.26;100.00;97296.19;5078547;28;20463;-79
2023/12/06 03:42:34;;;;;;;12.83;8.50;;;2.10;99.90;;;1.29;100.00;97295.03;5074138;28;20474;-80
2023/12/06 03:45:01;;;;;;;10.57;8.03;;;2.20;99.90;;;1.24;100.00;97287.56;5083482;28;20490;-78
2023/12/06 03:47:29;;;;;;;11.30;9.10;;;2.20;99.90;;;1.31;100.00;97301.84;5083604;28;20463;-78
2023/12/06 03:49:57;;;;;;;13.37;9.63;;;2.20;99.90;;;1.36;100.00;97295.97;5085665;28;20521;-76
2023/12/06 03:52:24;;;;;;;12.63;9.30;;;2.20;99.90;;;1.35;100.00;97305.81;5079634;28;20496;-79
2023/12/06 03:54:52;;;;;;;11.20;8.90;;;2.20;99.90;;;1.42;100.00;97296.13;5095486;28;20448;-72
2023/12/06 03:57:20;;;;;;;10.50;8.40;;;2.30;99.90;;;1.38;100.00;97300.13;5079506;28;20447;-72
2023/12/06 03:59:48;;;;;;;10.27;8.23;;;2.30;99.90;;;1.41;100.00;97294.47;5080664;28;20576;-78
2023/12/06 04:02:15;;;;;;;9.33;8.27;;;2.30;99.90;;;1.34;100.00;97292.66;5079606;28;20843;-76
2023/12/06 04:04:42;;;;;;;10.90;9.03;;;2.30;99.90;;;1.43;100.00;97294.28;5078174;28;20949;-72
2023/12/06 04:07:12;;;;;;;11.80;8.07;;;2.30;99.90;;;1.48;100.00;97302.56;5073581;28;20456;-77
2023/12/06 04:09:39;;;;;;;11.77;8.90;;;2.30;99.90;;;1.35;100.00;97297.84;5086383;28;20454;-75
2023/12/06 04:12:08;;;;;;;11.17;7.70;;;2.30;99.90;;;1.45;100.00;97299.47;5073160;28;20578;-75
2023/12/06 04:14:35;;;;;;;11.83;8.67;;;2.30;99.90;;;1.46;100.00;97290.47;5086038;28;20484;-76
2023/12/06 04:17:02;;;;;;;10.00;8.43;;;2.30;99.90;;;1.45;100.00;97310.09;5082310;28;20471;-75
2023/12/06 04:19:30;;;;;;;10.77;8.70;;;2.30;99.90;;;1.53;100.00;97302.06;5081035;28;20453;-77
2023/12/06 04:21:57;;;;;;;9.77;7.50;;;2.30;99.90;;;1.44;100.00;97300.44;5084475;28;20825;-75
2023/12/06 04:24:27;;;;;;;10.47;8.23;;;2.30;99.90;;;1.50;100.00;97305.06;5077258;28;20462;-74
2023/12/06 04:26:54;;;;;;;10.27;8.10;;;2.30;99.90;;;1.52;100.00;97313.72;5083321;28;20570;-76
2023/12/06 04:29:21;;;;;;;12.40;7.80;;;2.40;99.90;;;1.36;100.00;97311.94;5083615;28;20441;-78
2023/12/06 04:31:50;;;;;;;10.57;8.77;;;2.30;99.90;;;1.42;100.00;97314.75;5083980;28;20479;-77
2023/12/06 04:34:19;;;;;;;10.03;7.40;;;2.30;99.90;;;1.50;100.00;97323.72;5082491;28;20450;-76
2023/12/06 04:36:46;;;;;;;12.30;8.47;;;2.30;99.90;;;1.45;100.00;97318.91;5083716;28;20441;-78
2023/12/06 04:39:14;;;;;;;8.67;6.90;;;2.30;99.90;;;1.36;100.00;97320.78;5078678;28;20462;-78
2023/12/06 04:41:42;;;;;;;10.83;7.20;;;2.30;99.80;;;1.40;100.00;97329.25;5084280;28;20462;-76
2023/12/06 04:44:09;;;;;;;7.77;6.73;;;2.30;99.90;;;0.77;100.00;97233.41;5095504;28;20446;-73
2023/12/06 04:46:37;;;;;;;9.60;7.00;;;2.20;99.90;;;1.40;100.00;97334.59;5090126;28;20735;-74
2023/12/06 04:49:05;;;;;;;7.97;6.67;;;2.20;99.90;;;1.29;100.00;97329.63;5082693;28;20494;-76
2023/12/06 04:51:33;;;;;;;10.40;6.93;;;2.20;99.90;;;1.18;100.00;97307.72;5086614;28;20461;-75
2023/12/06 04:54:00;;;;;;;9.57;6.17;;;2.20;99.90;;;1.26;100.00;97336.13;5088905;28;20474;-75
2023/12/06 04:56:28;;;;;;;10.20;6.90;;;2.20;99.90;;;1.19;100.00;97330.66;5081566;28;20971;-75
2023/12/06 04:58:56;;;;;;;8.23;7.33;;;2.10;99.90;;;1.21;100.00;97341.16;5103642;28;20445;-77
2023/12/06 05:01:24;;;;;;;8.70;6.87;;;2.10;99.90;;;1.08;100.00;97323.88;5086258;28;20478;-74
2023/12/06 05:03:51;;;;;;;9.23;6.03;;;2.10;99.90;;;0.68;100.00;97245.88;5090643;28;20452;-80
2023/12/06 05:06:18;;;;;;;11.33;7.93;;;2.10;99.90;;;1.30;100.00;97340.13;5087202;28;20467;-73
2023/12/06 05:08:46;;;;;;;8.37;7.00;;;2.10;99.90;;;1.22;100.00;97348.13;5085994;28;20522;-74
2023/12/06 05:11:13;;;;;;;9.07;6.77;;;2.10;99.90;;;1.20;100.00;97344.81;5084724;28;20842;-78
2023/12/06 05:13:40;;;;;;;10.00;6.37;;;2.10;99.90;;;1.26;100.00;97347.63;5089546;28;20473;-75
2023/12/06 05:16:10;;;;;;;10.20;7.30;;;2.10;99.90;;;1.19;100.00;97340.50;5098416;28;20552;-76
2023/12/06 05:18:37;;;;;;;8.70;6.67;;;2.10;99.90;;;1.25;100.00;97345.13;5111155;28;22249;-75
2023/12/06 05:21:04;;;;;;;11.10;7.13;;;2.10;99.90;;;1.26;100.00;97354.75;5111523;28;20530;-71
2023/12/06 05:23:32;;;;;;;9.10;7.57;;;2.10;99.90;;;1.29;100.00;97348.25;5107137;28;20437;-76
2023/12/06 05:25:59;;;;;;;9.07;6.60;;;2.10;99.90;;;0.79;100.00;97272.13;5074958;28;20462;-71
2023/12/06 05:28:27;;;;;;;9.70;8.03;;;2.10;99.90;;;1.19;100.00;97343.97;5067569;28;20467;-76
2023/12/06 05:30:54;;;;;;;9.83;7.60;;;2.10;99.90;;;1.35;100.00;97342.25;5073745;28;20935;-74
2023/12/06 05:33:23;;;;;;;8.40;7.07;;;2.10;99.90;;;1.33;100.00;97337.09;5088788;28;20473;-76
2023/12/06 05:35:50;;;;;;;12.03;7.80;;;2.20;99.90;;;1.38;100.00;97350.72;5074490;28;20526;-77
2023/12/06 05:38:18;;;;;;;10.23;7.50;;;2.20;99.90;;;1.42;100.00;97349.34;5081727;28;20464;-72
2023/12/06 05:40:46;;;;;;;9.43;7.43;;;2.20;99.90;;;1.45;100.00;97342.88;5087504;28;20838;-73
2023/12/06 05:43:13;;;;;;;9.83;7.90;;;2.20;99.90;;;1.46;100.00;97349.84;5086461;28;20459;-73
2023/12/06 05:45:41;;;;;;;9.23;6.90;;;2.20;99.90;;;1.38;100.00;97350.72;5087122;28;20454;-70
2023/12/06 05:48:09;;;;;;;9.30;7.33;;;2.30;99.90;;;1.24;100.00;97338.13;5079508;28;20528;-72
2023/12/06 05:50:37;;;;;;;9.73;7.10;;;2.20;99.90;;;1.44;100.00;97351.00;5088628;28;20498;-70
2023/12/06 05:53:05;;;;;;;9.70;7.10;;;2.30;99.90;;;1.49;100.00;97351.34;5078330;28;20478;-71
2023/12/06 05:55:32;;;;;;;10.73;6.80;;;2.20;99.90;;;1.49;100.00;97352.16;5091209;28;20437;-71
2023/12/06 05:57:59;;;;;;;7.40;6.20;;;2.30;99.90;;;1.39;100.00;97339.06;5089071;28;20544;-70
2023/12/06 06:00:27;;;;;;;9.63;6.83;;;2.30;99.90;;;1.53;100.00;97353.50;5092902;28;20802;-71
2023/12/06 06:02:56;;;;;;;11.97;8.67;;;2.30;99.90;;;1.57;100.00;97356.63;5080482;28;20590;-71
2023/12/06 06:05:23;;;;;;;10.20;8.10;;;2.30;99.90;;;1.58;100.00;97352.13;5092080;28;20481;-72
2023/12/06 06:07:54;;;;;;;10.57;8.47;;;2.30;99.90;;;1.08;100.00;97286.63;5082370;28;20446;-74
2023/12/06 06:10:21;;;;;;;13.60;8.33;;;2.40;99.90;;;1.67;100.00;97357.25;5081545;28;20460;-73
2023/12/06 06:12:49;;;;;;;11.10;8.70;;;2.40;99.90;;;1.68;100.00;97360.75;5101075;27;20460;-73
2023/12/06 06:15:16;;;;;;;10.53;8.30;;;2.40;99.90;;;1.68;100.00;97364.22;5081913;28;20477;-72
2023/12/06 06:17:43;;;;;;;11.40;8.63;;;2.40;99.90;;;2.50;100.00;97356.69;5080205;28;20460;-75
2023/12/06 06:20:12;;;;;;;10.67;8.50;;;3.00;99.90;;;2.31;100.00;97357.16;5079862;28;20462;-74
2023/12/06 06:22:39;;;;;;;10.83;8.83;;;3.20;99.90;;;2.85;100.00;97361.50;5078596;28;20458;-73
2023/12/06 06:25:10;;;;;;;10.70;9.37;;;3.40;99.90;;;2.21;100.00;97342.25;5081930;28;20459;-74
2023/12/06 06:27:37;;;;;;;9.47;7.67;;;3.20;99.90;;;1.83;100.00;97323.50;5080535;28;20811;-74
2023/12/06 06:30:07;;;;;;;10.40;8.10;;;2.90;99.90;;;1.96;100.00;97363.72;5086106;28;20457;-72
2023/12/06 06:32:34;;;;;;;9.87;8.30;;;2.80;99.90;;;1.96;100.00;97363.72;5084067;28;20474;-72
2023/12/06 06:35:01;;;;;;;9.10;7.63;;;2.70;99.90;;;1.86;100.00;97375.63;5083997;28;20439;-73
2023/12/06 06:37:29;;;;;;;8.43;7.07;;;2.70;99.90;;;1.92;100.00;97362.44;5082867;28;20532;-73
2023/12/06 06:39:56;;;;;;;9.00;7.70;;;2.70;99.90;;;1.95;100.00;97370.06;5078715;28;20458;-72
2023/12/06 06:42:26;;;;;;;9.33;7.83;;;2.70;99.90;;;1.89;100.00;97365.44;5083594;28;20515;-73
2023/12/06 06:44:55;;;;;;;8.33;6.73;;;2.70;99.90;;;1.87;100.00;97383.44;5083134;28;20456;-71
2023/12/06 06:47:27;;;;;;;10.73;7.03;;;2.70;99.90;;;1.79;100.00;97370.97;5079051;28;20462;-73
2023/12/06 06:49:54;;;;;;;7.97;6.13;;;2.70;99.90;;;2.03;100.00;97379.84;5082444;28;20478;-84
2023/12/06 06:52:21;;;;;;;9.50;6.87;;;2.70;99.90;;;2.11;100.00;97378.97;5083548;28;21155;-82
2023/12/06 06:54:49;;;;;;;8.27;6.23;;;2.80;99.90;;;1.98;100.00;97380.38;5083083;28;20492;-81
2023/12/06 06:57:16;;;;;;;7.30;5.90;;;2.80;99.90;;;2.01;100.00;97383.69;5087079;28;20445;-81
2023/12/06 06:59:45;;;;;;;5.67;4.20;;;2.80;99.90;;;1.86;100.00;97386.28;5084692;28;20466;-77
2023/12/06 07:02:12;;;;;;;5.20;4.17;;;2.70;99.90;;;1.81;100.00;97390.28;5079928;28;20455;-79
2023/12/06 07:04:41;;;;;;;4.20;3.80;;;2.70;99.90;;;1.86;100.00;97392.44;5079742;28;21053;-74
2023/12/06 07:07:08;;;;;;;3.93;3.53;;;2.70;99.90;;;1.87;100.00;97388.75;5069113;28;20453;-78
2023/12/06 07:09:35;;;;;;;4.50;3.53;;;2.80;99.90;;;1.85;100.00;97401.41;5074531;28;21025;-80
2023/12/06 07:12:04;;;;;;;3.40;3.10;;;2.70;99.40;;;2.06;100.00;97402.66;5069449;28;20556;-80
2023/12/06 07:14:31;;;;;;;4.37;3.77;;;2.80;99.70;;;2.00;100.00;97408.66;5075842;28;20549;-77
2023/12/06 07:17:00;;;;;;;3.90;3.60;;;2.70;99.10;;;2.07;100.00;97393.66;5068908;28;20455;-75
2023/12/06 07:19:28;;;;;;;3.97;3.43;;;2.90;98.50;;;2.24;100.00;97399.69;5077312;28;20462;-74
2023/12/06 07:21:56;;;;;;;5.00;4.03;;;2.90;97.80;;;2.07;100.00;97383.81;5077483;28;20452;-83
2023/12/06 07:24:23;;;;;;;4.73;3.53;;;2.90;97.70;;;2.11;100.00;97410.94;5088386;28;20461;-83
2023/12/06 07:26:51;;;;;;;4.00;3.70;;;2.90;98.20;;;2.33;100.00;97408.44;5074057;28;20544;-80
2023/12/06 07:29:18;;;;;;;9.60;8.30;;;2.90;98.70;;;2.34;100.00;97416.28;5093903;28;20573;-85
2023/12/06 07:31:45;;;;;;;5.17;4.53;;;3.00;98.80;;;2.22;100.00;97410.53;5070848;28;20544;-78
2023/12/06 07:34:17;;;;;;;6.17;4.50;;;3.00;98.00;;;2.19;100.00;97415.38;5081776;28;21259;-69
2023/12/06 07:36:45;;;;;;;5.50;4.40;;;3.00;97.90;;;2.20;100.00;97409.91;5081227;28;20461;-81
2023/12/06 07:39:14;;;;;;;5.07;4.10;;;3.00;98.20;;;2.19;100.00;97405.53;5077904;28;20983;-84
2023/12/06 07:41:42;;;;;;;4.97;4.37;;;3.00;98.30;;;2.19;100.00;97412.72;5085940;28;20452;-73
2023/12/06 07:44:09;;;;;;;6.73;5.03;;;3.00;98.00;;;2.19;100.00;97413.53;5106541;28;20453;-69
2023/12/06 07:46:37;;;;;;;6.93;4.80;;;3.00;98.20;;;2.19;100.00;97412.72;5100116;28;20489;-72
2023/12/06 07:49:04;;;;;;;6.73;4.53;;;3.00;98.10;;;2.29;100.00;97417.81;5093258;28;20801;-79
2023/12/06 07:51:35;;;;;;;5.53;4.47;;;3.00;98.20;;;2.26;100.00;97417.16;5097214;28;20455;-75
2023/12/06 07:54:02;;;;;;;4.27;3.87;;;3.00;97.90;;;2.20;100.00;97399.22;5078280;28;20504;-78
2023/12/06 07:56:29;;;;;;;9.00;6.60;;;3.00;97.80;;;2.31;100.00;97421.97;5066028;28;20468;-70
2023/12/06 07:58:57;;;;;;;5.33;4.73;;;3.10;97.60;;;2.36;100.00;97424.13;5071512;28;20533;-77
2023/12/06 08:01:28;;;;;;;5.37;3.80;;;3.10;97.10;;;2.36;100.00;97424.13;5067818;28;20933;-75
2023/12/06 08:03:56;;;;;;;4.10;3.60;;;3.10;97.30;;;2.46;100.00;97423.88;5090056;28;20446;-80
2023/12/06 08:06:24;;;;;;;5.80;5.20;;;3.10;97.20;;;2.40;100.00;97417.41;5074775;28;20463;-79
2023/12/06 08:08:53;;;;;;;4.37;3.97;;;3.20;97.20;;;2.45;100.00;97432.88;5079600;28;20552;-83
2023/12/06 08:11:21;;;;;;;4.30;3.80;;;3.20;96.50;;;2.40;100.00;97428.09;5082153;28;21481;-80
2023/12/06 08:13:48;;;;;;;4.33;3.63;;;3.10;96.80;;;2.40;100.00;97433.41;5075599;28;21094;-78
2023/12/06 08:16:16;;;;;;;6.70;4.00;;;3.20;96.70;;;2.33;100.00;97429.78;5088791;28;20544;-83
2023/12/06 08:18:44;;;;;;;6.20;5.60;;;3.10;96.80;;;2.19;100.00;97429.53;5080659;28;20507;-81
2023/12/06 08:21:11;;;;;;;5.20;4.70;;;3.10;96.90;;;2.36;100.00;97432.13;5075672;28;20454;-76
2023/12/06 08:23:38;;;;;;;6.30;4.20;;;3.10;97.00;;;2.36;100.00;97429.44;5082319;28;20447;-76
2023/12/06 08:26:10;;;;;;;5.20;4.70;;;3.10;97.00;;;2.49;100.00;97434.19;5073002;28;20767;-79
2023/12/06 08:28:39;;;;;;;4.47;4.03;;;3.20;97.20;;;2.55;100.00;97434.31;5084437;28;20469;-74
2023/12/06 08:31:08;;;;;;;6.03;4.03;;;3.20;97.10;;;2.43;100.00;97434.88;5075896;28;20463;-75
2023/12/06 08:33:39;;;;;;;4.90;3.97;;;3.20;96.60;;;2.41;100.00;97427.06;5077181;28;20476;-73
2023/12/06 08:36:07;;;;;;;4.30;3.60;;;3.20;96.30;;;2.52;100.00;97445.34;5093437;27;20454;-70
2023/12/06 08:38:35;;;;;;;6.97;3.97;;;3.30;96.30;;;2.41;100.00;97443.88;5076334;28;20447;-75
2023/12/06 08:41:05;;;;;;;4.77;4.30;;;3.30;96.20;;;2.38;100.00;97449.56;5074379;28;20563;-73
2023/12/06 08:43:37;;;;;;;5.53;4.30;;;3.20;96.20;;;2.47;100.00;97452.19;5084525;28;20486;-75
2023/12/06 08:46:06;;;;;;;5.27;4.30;;;3.20;96.60;;;2.44;100.00;97448.03;5083577;28;20462;-77
2023/12/06 08:48:35;;;;;;;4.70;4.00;;;3.30;96.70;;;2.43;100.00;97446.38;5088354;28;20455;-78
2023/12/06 08:51:02;;;;;;;4.30;3.90;;;3.20;96.60;;;2.43;100.00;97453.53;5086138;28;20511;-72
2023/12/06 08:53:29;;;;;;;5.00;4.50;;;3.20;96.80;;;2.45;100.00;97456.88;5079807;28;20471;-73
2023/12/06 08:55:58;;;;;;;4.60;4.20;;;3.20;96.70;;;2.44;100.00;97453.38;5087112;28;20478;-72
2023/12/06 08:58:25;;;;;;;6.73;3.57;;;3.20;96.80;;;2.64;100.00;97452.88;5082870;28;20539;-75
2023/12/06 09:00:53;;;;;;;6.63;4.00;;;3.30;96.90;;;2.63;100.00;97467.25;5086758;28;20453;-77
2023/12/06 09:03:22;;;;;;;6.67;4.00;;;3.30;96.50;;;2.83;100.00;97463.09;5080031;28;20450;-75
2023/12/06 09:05:49;;;;;;;5.43;4.80;;;3.40;96.80;;;2.83;100.00;97463.09;5084565;28;20554;-78
2023/12/06 09:08:16;;;;;;;4.87;4.43;;;3.50;95.90;;;2.67;100.00;97468.56;5082404;28;20458;-78
2023/12/06 09:10:44;;;;;;;6.57;4.57;;;3.50;95.10;;;2.80;100.00;97467.94;5084651;28;20503;-79
2023/12/06 09:13:11;;;;;;;4.23;3.83;;;3.50;95.80;;;2.79;100.00;97467.09;5080508;28;20457;-78
2023/12/06 09:15:38;;;;;;;5.33;4.83;;;3.50;95.20;;;2.94;99.77;97482.34;5072901;28;20767;-73
2023/12/06 09:18:08;;;;;;;5.73;4.07;;;3.50;95.30;;;2.83;100.00;97465.75;5069435;28;23201;-75
2023/12/06 09:20:35;;;;;;;5.07;4.40;;;3.50;95.00;;;2.86;100.00;97466.41;5071606;28;20486;-70
2023/12/06 09:23:02;;;;;;;6.20;4.63;;;3.50;95.10;;;2.87;100.00;97474.22;5076610;28;20457;-73
2023/12/06 09:25:30;;;;;;;4.63;4.03;;;3.60;94.70;;;2.81;100.00;97467.78;5080728;28;20452;-76
2023/12/06 09:27:57;;;;;;;5.47;4.97;;;3.60;94.80;;;2.69;100.00;97471.88;5074627;28;20467;-75
2023/12/06 09:30:32;;;;;;;5.20;4.30;;;3.50;94.90;;;2.67;100.00;97472.03;5076557;28;20471;-78
2023/12/06 09:32:59;;;;;;;7.00;5.27;;;3.50;95.60;;;2.63;100.00;97477.91;5073898;28;20488;-80
2023/12/06 09:35:28;;;;;;;4.93;4.43;;;3.50;95.70;;;2.90;100.00;97481.03;5083429;28;20954;-77
2023/12/06 09:37:56;;;;;;;6.20;5.60;;;3.60;95.90;;;2.78;100.00;97478.78;5080010;28;20484;-72
2023/12/06 09:40:24;;;;;;;8.23;4.30;;;3.60;95.30;;;2.98;100.00;97481.81;5084389;28;20454;-79
2023/12/06 09:43:01;;;;;;;5.83;5.03;;;3.60;95.80;;;2.79;100.00;97484.97;5079800;28;20471;-75
2023/12/06 09:45:29;;;;;;;5.00;4.50;;;3.60;95.50;;;2.76;100.00;97478.16;5082348;28;20887;-73
2023/12/06 09:47:57;;;;;;;6.83;4.77;;;3.60;95.50;;;2.79;100.00;97469.78;5089156;28;20517;-80
2023/12/06 09:50:25;;;;;;;5.40;4.90;;;3.60;95.60;;;2.81;100.00;97469.59;5080226;28;20966;-79
2023/12/06 09:52:55;;;;;;;8.70;6.07;;;3.60;95.90;;;3.00;100.00;97459.44;5084592;28;20486;-76
2023/12/06 09:55:25;;;;;;;6.43;5.70;;;3.70;95.80;;;2.99;100.00;97474.63;5085985;28;20892;-79
2023/12/06 09:57:52;;;;;;;5.33;4.83;;;3.80;95.30;;;3.00;100.00;97468.28;5077366;28;20464;-82
2023/12/06 10:00:22;;;;;;;7.97;5.27;;;3.80;94.90;;;3.07;100.00;97468.41;5085931;28;20543;-70
2023/12/06 10:02:54;;;;;;;5.67;5.07;;;3.80;94.90;;;3.05;100.00;97463.22;5078173;28;20695;-76
2023/12/06 10:05:23;;;;;;;5.30;4.80;;;3.90;95.10;;;3.24;100.00;97474.41;5080856;28;20457;-79
2023/12/06 10:07:50;;;;;;;7.50;5.70;;;4.00;94.90;;;3.26;99.89;97473.22;5082186;28;20608;-77
2023/12/06 10:10:21;;;;;;;6.53;5.50;;;4.00;94.40;;;3.21;100.00;97470.28;5094498;28;20449;-75
2023/12/06 10:12:52;;;;;;;7.40;5.93;;;4.00;94.10;;;3.43;99.45;97472.22;5088548;28;20443;-73
2023/12/06 10:15:20;;;;;;;6.90;6.20;;;4.10;94.50;;;3.42;99.76;97482.06;5098338;28;20792;-78
2023/12/06 10:17:48;;;;;;;6.17;5.57;;;4.10;94.30;;;3.48;99.73;97475.16;5090837;28;20475;-72
2023/12/06 10:20:17;;;;;;;6.40;5.80;;;4.20;94.10;;;3.44;99.15;97481.91;5093283;28;20514;-79
2023/12/06 10:22:47;;;;;;;8.30;6.20;;;4.20;94.00;;;3.62;99.06;97474.34;5085406;28;20462;-66
2023/12/06 10:25:15;;;;;;;8.30;7.37;;;4.20;94.30;;;3.60;98.88;97478.22;5077517;28;20478;-67